createdAt,value
2022-09-22T00:02:04.541Z,9.40
2022-09-22T00:05:10.834Z,9.23
2022-09-22T00:08:10.518Z,10.32
2022-09-22T00:11:23.511Z,11.05
2022-09-22T00:14:39.211Z,13.15
2022-09-22T00:17:44.315Z,13.38
2022-09-22T00:20:53.120Z,12.25
2022-09-22T00:23:59.059Z,10.38
2022-09-22T00:27:05.340Z,14.85
2022-09-22T00:30:10.366Z,12.90
2022-09-22T00:33:16.779Z,11.50
2022-09-22T00:36:23.142Z,13.18
2022-09-22T00:39:22.887Z,14.60
2022-09-22T00:42:16.517Z,10.13
2022-09-22T00:45:23.761Z,10.37
2022-09-22T00:48:28.814Z,11.85
2022-09-22T00:51:37.514Z,11.53
2022-09-22T00:54:43.480Z,9.35
2022-09-22T00:57:50.731Z,9.50
2022-09-22T01:00:56.204Z,8.68
2022-09-22T01:04:01.374Z,11.73
2022-09-22T01:07:06.784Z,14.07
2022-09-22T01:10:12.397Z,11.10
2022-09-22T01:13:49.120Z,8.73
2022-09-22T01:17:18.148Z,11.53
2022-09-22T01:20:43.213Z,12.98
2022-09-22T01:24:18.141Z,10.63
2022-09-22T01:27:47.995Z,9.75
2022-09-22T01:31:07.070Z,11.73
2022-09-22T01:34:25.687Z,16.20
2022-09-22T01:37:31.649Z,14.68
2022-09-22T01:41:03.055Z,7.50
2022-09-22T01:44:15.353Z,8.75
2022-09-22T01:47:31.509Z,7.17
2022-09-22T01:50:50.644Z,9.78
2022-09-22T01:54:00.749Z,6.33
2022-09-22T02:00:18.563Z,7.85
2022-09-22T02:03:41.472Z,9.93
2022-09-22T02:06:54.186Z,18.15
2022-09-22T02:10:02.242Z,15.90
2022-09-22T02:13:07.166Z,12.25
2022-09-22T02:16:12.389Z,10.75
2022-09-22T02:19:39.748Z,19.20
2022-09-22T02:22:45.265Z,12.43
2022-09-22T02:25:52.073Z,12.98
2022-09-22T02:28:51.943Z,12.25
2022-09-22T02:31:53.058Z,12.58
2022-09-22T02:35:00.067Z,16.07
2022-09-22T02:38:09.680Z,14.05
2022-09-22T02:41:33.158Z,14.13
2022-09-22T02:44:58.104Z,16.02
2022-09-22T02:48:15.943Z,12.78
2022-09-22T02:51:20.737Z,21.73
2022-09-22T02:54:25.779Z,18.65
2022-09-22T02:57:31.723Z,13.68
2022-09-22T03:00:39.531Z,20.62
2022-09-22T03:03:45.435Z,19.85
2022-09-22T03:06:50.706Z,19.95
2022-09-22T03:09:56.276Z,21.70
2022-09-22T03:13:19.950Z,16.30
2022-09-22T03:16:13.296Z,14.10
2022-09-22T03:19:19.003Z,19.12
2022-09-22T03:22:25.282Z,20.92
2022-09-22T03:25:31.234Z,12.10
2022-09-22T03:28:37.684Z,20.82
2022-09-22T03:31:43.337Z,13.60
2022-09-22T03:34:49.801Z,15.48
2022-09-22T03:37:54.667Z,21.65
2022-09-22T03:41:08.660Z,21.33
2022-09-22T03:44:14.272Z,14.47
2022-09-22T03:47:20.470Z,15.58
2022-09-22T03:50:27.130Z,16.42
2022-09-22T03:53:32.483Z,19.40
2022-09-22T03:56:37.230Z,13.40
2022-09-22T03:59:43.476Z,15.40
2022-09-22T04:02:48.927Z,14.87
2022-09-22T04:05:55.202Z,13.05
2022-09-22T04:09:01.934Z,14.73
2022-09-22T04:12:07.481Z,15.93
2022-09-22T04:15:12.892Z,10.88
2022-09-22T04:18:19.718Z,13.95
2022-09-22T04:21:25.583Z,11.60
2022-09-22T04:24:31.906Z,12.40
2022-09-22T04:27:36.763Z,13.68
2022-09-22T04:30:47.475Z,12.95
2022-09-22T04:33:55.962Z,13.58
2022-09-22T04:37:02.392Z,18.27
2022-09-22T04:40:08.544Z,12.15
2022-09-22T04:43:15.117Z,12.55
2022-09-22T04:46:14.147Z,14.63
2022-09-22T04:49:19.356Z,14.93
2022-09-22T04:52:24.926Z,15.40
2022-09-22T04:55:31.456Z,13.08
2022-09-22T04:58:38.113Z,11.63
2022-09-22T05:01:43.539Z,12.53
2022-09-22T05:04:48.964Z,13.62
2022-09-22T05:08:01.234Z,13.48
2022-09-22T05:11:07.980Z,12.07
2022-09-22T05:14:14.824Z,11.40
2022-09-22T05:17:20.536Z,11.53
2022-09-22T05:20:27.420Z,10.50
2022-09-22T05:23:36.995Z,10.20
2022-09-22T05:26:43.753Z,11.33
2022-09-22T05:29:48.485Z,12.00
2022-09-22T05:33:00.056Z,7.60
2022-09-22T05:36:07.565Z,6.97
2022-09-22T05:39:14.285Z,11.20
2022-09-22T05:42:20.888Z,13.98
2022-09-22T05:45:26.646Z,10.00
2022-09-22T05:48:33.212Z,8.68
2022-09-22T05:51:39.455Z,7.47
2022-09-22T05:54:40.819Z,9.03
2022-09-22T05:57:41.540Z,6.28
2022-09-22T06:00:40.740Z,7.03
2022-09-22T06:03:27.013Z,6.70
2022-09-22T06:06:22.172Z,7.12
2022-09-22T06:09:15.747Z,11.22
2022-09-22T06:12:22.150Z,6.25
2022-09-22T06:15:27.730Z,5.97
2022-09-22T06:18:33.337Z,7.08
2022-09-22T06:21:42.254Z,5.72
2022-09-22T06:24:48.418Z,7.97
2022-09-22T06:27:54.024Z,6.00
2022-09-22T06:31:00.319Z,7.17
2022-09-22T06:36:39.596Z,5.75
2022-09-22T06:39:45.758Z,6.62
2022-09-22T06:42:52.188Z,5.08
2022-09-22T06:46:02.458Z,6.03
2022-09-22T06:49:12.556Z,4.05
2022-09-22T06:52:23.461Z,5.80
2022-09-22T06:55:29.574Z,3.75
2022-09-22T06:58:58.607Z,5.22
2022-09-22T07:01:43.096Z,3.80
2022-09-22T07:04:50.700Z,4.45
2022-09-22T07:07:59.416Z,7.22
2022-09-22T07:11:11.282Z,3.45
2022-09-22T07:14:19.779Z,4.08
2022-09-22T07:17:27.487Z,4.80
2022-09-22T07:20:35.153Z,5.28
2022-09-22T07:23:43.396Z,6.20
2022-09-22T07:26:53.564Z,5.97
2022-09-22T07:30:01.592Z,7.97
2022-09-22T07:33:08.182Z,3.10
2022-09-22T07:36:21.226Z,2.67
2022-09-22T07:39:26.694Z,3.47
2022-09-22T07:42:32.716Z,2.30
2022-09-22T07:45:39.088Z,2.98
2022-09-22T07:48:55.429Z,3.45
2022-09-22T07:52:18.536Z,2.50
2022-09-22T07:55:25.855Z,3.70
2022-09-22T07:58:33.128Z,6.22
2022-09-22T08:01:41.852Z,4.53
2022-09-22T08:04:49.507Z,2.45
2022-09-22T08:07:55.675Z,2.35
2022-09-22T08:11:02.557Z,2.47
2022-09-22T08:14:13.348Z,2.52
2022-09-22T08:17:19.990Z,2.12
2022-09-22T08:20:27.780Z,4.65
2022-09-22T08:23:33.761Z,2.98
2022-09-22T08:26:39.302Z,2.25
2022-09-22T08:29:45.176Z,3.08
2022-09-22T08:32:52.521Z,2.75
2022-09-22T08:36:11.546Z,2.12
2022-09-22T08:39:16.484Z,5.17
2022-09-22T08:42:35.272Z,2.87
2022-09-22T08:45:46.045Z,5.92
2022-09-22T08:49:08.878Z,2.55
2022-09-22T08:52:18.740Z,3.27
2022-09-22T08:59:05.650Z,3.87
2022-09-22T09:02:37.171Z,2.25
2022-09-22T09:06:17.830Z,3.75
2022-09-22T09:09:23.671Z,2.02
2022-09-22T09:12:49.785Z,3.20
2022-09-22T09:15:59.903Z,2.72
2022-09-22T09:19:11.123Z,3.02
2022-09-22T09:22:17.211Z,3.60
2022-09-22T09:25:36.686Z,7.12
2022-09-22T09:29:04.002Z,4.17
2022-09-22T09:32:09.550Z,5.47
2022-09-22T09:35:16.638Z,1.80
2022-09-22T09:38:24.665Z,3.20
2022-09-22T09:41:46.592Z,2.37
2022-09-22T09:44:56.224Z,4.97
2022-09-22T09:48:26.543Z,4.72
2022-09-22T09:51:31.637Z,2.83
2022-09-22T09:54:37.574Z,5.62
2022-09-22T09:57:43.204Z,4.28
2022-09-22T10:00:49.975Z,4.22
2022-09-22T10:04:02.159Z,3.55
2022-09-22T10:07:08.439Z,3.30
2022-09-22T10:10:37.727Z,3.40
2022-09-22T10:13:47.483Z,3.02
2022-09-22T10:16:54.748Z,2.42
2022-09-22T10:20:01.710Z,3.42
2022-09-22T10:23:09.829Z,4.55
2022-09-22T10:26:44.700Z,2.22
2022-09-22T10:29:49.616Z,2.25
2022-09-22T10:32:54.510Z,3.52
2022-09-22T10:36:19.235Z,2.50
2022-09-22T10:39:28.268Z,2.00
2022-09-22T10:42:54.752Z,4.65
2022-09-22T10:46:19.265Z,5.33
2022-09-22T10:50:07.657Z,3.72
2022-09-22T10:53:22.027Z,3.80
2022-09-22T10:56:54.689Z,5.65
2022-09-22T11:00:33.055Z,8.65
2022-09-22T11:04:15.362Z,6.75
2022-09-22T11:08:18.845Z,4.45
2022-09-22T11:11:58.383Z,3.25
2022-09-22T11:15:22.434Z,8.17
2022-09-22T11:18:59.995Z,8.78
2022-09-22T11:22:32.917Z,6.58
2022-09-22T11:26:24.126Z,8.63
2022-09-22T11:30:10.984Z,54.60
2022-09-22T11:33:46.659Z,20.60
2022-09-22T11:37:33.181Z,9.23
2022-09-22T11:41:31.610Z,7.72
2022-09-22T11:44:50.936Z,8.10
2022-09-22T11:48:07.469Z,14.28
2022-09-22T11:51:56.552Z,9.30
2022-09-22T11:55:35.124Z,10.00
2022-09-22T11:58:42.631Z,12.35
2022-09-22T12:01:51.920Z,9.38
2022-09-22T12:05:11.343Z,13.15
2022-09-22T12:08:29.967Z,7.55
2022-09-22T12:11:37.112Z,11.60
2022-09-22T12:14:44.878Z,7.47
2022-09-22T12:18:03.604Z,9.28
2022-09-22T12:21:17.005Z,12.90
2022-09-22T12:24:26.147Z,10.03
2022-09-22T12:27:42.168Z,13.22
2022-09-22T12:30:48.779Z,7.10
2022-09-22T12:34:01.168Z,7.72
2022-09-22T12:37:11.656Z,5.50
2022-09-22T12:40:35.647Z,11.30
2022-09-22T12:43:41.954Z,8.23
2022-09-22T12:46:48.498Z,9.38
2022-09-22T12:50:13.168Z,10.75
2022-09-22T12:53:28.771Z,8.23
2022-09-22T12:57:22.978Z,7.10
2022-09-22T13:00:36.166Z,13.75
2022-09-22T13:03:45.756Z,7.83
2022-09-22T13:06:59.561Z,6.50
2022-09-22T13:10:05.263Z,5.50
2022-09-22T13:13:22.276Z,6.87
2022-09-22T13:16:36.157Z,6.78
2022-09-22T13:19:28.980Z,8.43
2022-09-22T13:22:34.936Z,7.00
2022-09-22T13:25:42.604Z,10.08
2022-09-22T13:28:47.606Z,6.12
2022-09-22T13:32:00.108Z,13.32
2022-09-22T13:35:06.573Z,5.55
2022-09-22T13:38:14.209Z,5.40
2022-09-22T13:41:25.465Z,4.40
2022-09-22T13:44:35.279Z,5.53
2022-09-22T13:47:41.821Z,5.37
2022-09-22T13:50:47.329Z,8.35
2022-09-22T13:53:52.981Z,10.55
2022-09-22T13:57:00.450Z,4.60
2022-09-22T14:00:07.102Z,11.00
2022-09-22T14:03:13.549Z,7.28
2022-09-22T14:06:21.882Z,6.28
2022-09-22T14:09:27.120Z,7.42
2022-09-22T14:12:32.830Z,7.67
2022-09-22T14:15:57.518Z,3.75
2022-09-22T14:19:07.142Z,3.60
2022-09-22T14:25:20.417Z,7.42
2022-09-22T14:28:29.695Z,6.40
2022-09-22T14:31:41.380Z,4.65
2022-09-22T14:34:47.895Z,6.28
2022-09-22T14:37:52.853Z,8.55
2022-09-22T14:40:40.403Z,4.53
2022-09-22T14:43:49.027Z,9.05
2022-09-22T14:46:56.433Z,7.50
2022-09-22T14:50:03.123Z,7.10
2022-09-22T14:53:30.057Z,10.68
2022-09-22T14:56:43.890Z,15.08
2022-09-22T15:00:08.575Z,6.53
2022-09-22T15:03:13.488Z,6.83
2022-09-22T15:06:24.882Z,6.28
2022-09-22T15:09:42.480Z,10.45
2022-09-22T15:12:58.042Z,5.03
2022-09-22T15:16:03.885Z,9.58
2022-09-22T15:19:09.034Z,6.30
2022-09-22T15:22:15.282Z,10.88
2022-09-22T15:25:22.797Z,5.72
2022-09-22T15:28:33.335Z,5.85
2022-09-22T15:31:39.179Z,4.25
2022-09-22T15:34:46.372Z,7.05
2022-09-22T15:37:52.750Z,13.48
2022-09-22T15:41:00.095Z,8.60
2022-09-22T15:44:06.548Z,4.42
2022-09-22T15:47:12.830Z,6.42
2022-09-22T15:50:23.539Z,8.35
2022-09-22T15:53:30.385Z,5.80
2022-09-22T15:56:36.212Z,9.90
2022-09-22T15:59:45.008Z,8.45
2022-09-22T16:02:50.441Z,4.33
2022-09-22T16:05:58.016Z,10.75
2022-09-22T16:09:09.365Z,13.10
2022-09-22T16:12:19.538Z,9.68
2022-09-22T16:15:27.281Z,11.50
2022-09-22T16:18:33.479Z,6.12
2022-09-22T16:21:44.814Z,6.37
2022-09-22T16:24:50.936Z,8.75
2022-09-22T16:27:57.339Z,6.72
2022-09-22T16:31:03.299Z,12.25
2022-09-22T16:34:12.876Z,11.05
2022-09-22T16:37:18.264Z,16.90
2022-09-22T16:40:27.225Z,6.12
2022-09-22T16:43:32.821Z,8.50
2022-09-22T16:46:41.677Z,9.10
2022-09-22T16:49:47.880Z,8.78
2022-09-22T16:52:54.454Z,8.63
2022-09-22T16:56:04.169Z,7.70
2022-09-22T16:59:10.236Z,11.48
2022-09-22T17:02:15.701Z,10.55
2022-09-22T17:05:22.461Z,10.68
2022-09-22T17:08:30.822Z,12.25
2022-09-22T17:11:37.660Z,13.43
2022-09-22T17:14:44.208Z,10.23
2022-09-22T17:17:50.949Z,14.75
2022-09-22T17:20:51.532Z,11.60
2022-09-22T17:23:58.300Z,10.35
2022-09-22T17:27:08.984Z,12.30
2022-09-22T17:30:14.572Z,7.58
2022-09-22T17:33:19.343Z,8.45
2022-09-22T17:36:26.194Z,22.40
2022-09-22T17:39:25.116Z,14.70
2022-09-22T17:42:30.982Z,25.45
2022-09-22T17:45:36.166Z,15.98
2022-09-22T17:48:59.479Z,19.50
2022-09-22T17:52:24.058Z,18.85
2022-09-22T17:55:34.255Z,16.32
2022-09-22T17:58:40.103Z,15.43
2022-09-22T18:01:45.758Z,18.12
2022-09-22T18:04:51.724Z,21.75
2022-09-22T18:07:58.411Z,20.55
2022-09-22T18:11:04.767Z,26.00
2022-09-22T18:14:12.772Z,22.60
2022-09-22T18:17:19.531Z,22.02
2022-09-22T18:20:33.446Z,20.90
2022-09-22T18:23:39.678Z,16.87
2022-09-22T18:26:46.810Z,20.65
2022-09-22T18:29:56.287Z,30.25
2022-09-22T18:33:02.742Z,40.35
2022-09-22T18:36:08.565Z,55.10
2022-09-22T18:39:15.677Z,56.92
2022-09-22T18:42:24.484Z,46.73
2022-09-22T18:45:34.646Z,33.60
2022-09-22T18:48:40.019Z,24.07
2022-09-22T18:51:49.167Z,24.25
2022-09-22T18:54:55.347Z,23.22
2022-09-22T18:58:00.910Z,21.50
2022-09-22T19:01:06.935Z,20.60
2022-09-22T19:04:12.861Z,28.92
2022-09-22T19:07:40.592Z,17.42
2022-09-22T19:10:42.593Z,16.73
2022-09-22T19:13:41.571Z,16.50
2022-09-22T19:16:48.806Z,14.47
2022-09-22T19:19:56.157Z,17.35
2022-09-22T19:23:01.111Z,15.03
2022-09-22T19:26:06.987Z,14.68
2022-09-22T19:29:12.278Z,17.30
2022-09-22T19:32:17.477Z,13.78
2022-09-22T19:35:23.884Z,14.30
2022-09-22T19:38:29.152Z,12.78
2022-09-22T19:41:34.339Z,12.93
2022-09-22T19:44:33.770Z,14.95
2022-09-22T19:47:39.698Z,14.55
2022-09-22T19:50:46.660Z,13.55
2022-09-22T19:53:53.019Z,21.42
2022-09-22T19:57:00.832Z,15.23
2022-09-22T20:00:06.575Z,18.20
2022-09-22T20:03:12.655Z,17.50
2022-09-22T20:06:17.970Z,15.35
2022-09-22T20:09:18.938Z,22.52
2022-09-22T20:12:18.359Z,20.02
2022-09-22T20:15:25.591Z,18.30
2022-09-22T20:18:31.797Z,22.00
2022-09-22T20:21:37.142Z,23.12
2022-09-22T20:24:43.864Z,21.55
2022-09-22T20:27:51.028Z,19.62
2022-09-22T20:30:56.856Z,24.20
2022-09-22T20:34:03.121Z,24.77
2022-09-22T20:37:08.904Z,20.80
2022-09-22T20:40:14.437Z,22.90
2022-09-22T20:43:23.609Z,21.27
2022-09-22T20:46:31.642Z,21.80
2022-09-22T20:49:39.607Z,17.62
2022-09-22T20:52:45.087Z,21.10
2022-09-22T20:55:50.388Z,17.95
2022-09-22T20:58:58.579Z,16.42
2022-09-22T21:02:06.657Z,17.80
2022-09-22T21:05:05.712Z,14.58
2022-09-22T21:08:06.596Z,16.23
2022-09-22T21:11:11.599Z,23.87
2022-09-22T21:14:17.808Z,25.92
2022-09-22T21:17:24.401Z,23.85
2022-09-22T21:20:30.049Z,31.07
2022-09-22T21:23:36.925Z,23.15
2022-09-22T21:26:42.184Z,24.07
2022-09-22T21:29:47.877Z,21.15
2022-09-22T21:32:53.678Z,29.30
2022-09-22T21:36:01.748Z,26.27
2022-09-22T21:39:12.240Z,23.73
2022-09-22T21:42:17.531Z,23.95
2022-09-22T21:45:25.063Z,28.75
2022-09-22T21:48:31.297Z,30.27
2022-09-22T21:51:37.151Z,27.07
2022-09-22T21:54:42.990Z,30.00
2022-09-22T21:57:47.903Z,37.08
2022-09-22T22:00:54.031Z,35.75
2022-09-22T22:03:59.835Z,35.95
2022-09-22T22:07:05.133Z,36.45
2022-09-22T22:10:10.932Z,28.05
2022-09-22T22:13:18.441Z,28.98
2022-09-22T22:16:26.648Z,32.33
2022-09-22T22:19:34.827Z,28.42
2022-09-22T22:22:40.279Z,33.60
2022-09-22T22:25:46.075Z,22.58
2022-09-22T22:28:52.144Z,26.23
2022-09-22T22:31:58.597Z,25.50
2022-09-22T22:35:04.516Z,22.25
2022-09-22T22:38:11.121Z,21.80
2022-09-22T22:41:19.373Z,22.42
2022-09-22T22:44:26.031Z,27.85
2022-09-22T22:47:32.831Z,18.35
2022-09-22T22:50:38.697Z,22.35
2022-09-22T22:53:45.030Z,26.60
2022-09-22T22:56:51.777Z,22.02
2022-09-22T22:59:57.410Z,26.70
2022-09-22T23:03:01.947Z,31.40
2022-09-22T23:06:15.193Z,24.18
2022-09-22T23:09:24.605Z,36.20
2022-09-22T23:12:31.046Z,26.03
2022-09-22T23:15:29.563Z,22.67
2022-09-22T23:18:35.569Z,37.30
2022-09-22T23:21:41.840Z,29.95
2022-09-22T23:24:48.565Z,32.75
2022-09-22T23:27:55.628Z,29.18
2022-09-22T23:31:02.587Z,26.62
2022-09-22T23:34:09.300Z,26.77
2022-09-22T23:37:15.489Z,28.67
2022-09-22T23:40:23.971Z,22.67
2022-09-22T23:43:30.223Z,31.68
2022-09-22T23:46:37.114Z,27.80
2022-09-22T23:49:42.671Z,24.37
2022-09-22T23:52:50.847Z,31.97
2022-09-22T23:55:56.419Z,28.00
2022-09-22T23:58:54.697Z,22.85
